createdAt,value
2022-09-06T00:00:16.061Z,7.95
2022-09-06T00:00:48.484Z,8.05
2022-09-06T00:01:23.595Z,9.27
2022-09-06T00:01:56.127Z,8.10
2022-09-06T00:02:32.260Z,9.05
2022-09-06T00:03:05.177Z,8.73
2022-09-06T00:03:37.644Z,8.02
2022-09-06T00:04:14.992Z,8.30
2022-09-06T00:04:49.063Z,8.63
2022-09-06T00:05:22.030Z,8.25
2022-09-06T00:05:54.803Z,8.05
2022-09-06T00:06:27.128Z,9.10
2022-09-06T00:06:59.424Z,8.23
2022-09-06T00:07:32.209Z,8.70
2022-09-06T00:08:05.743Z,8.13
2022-09-06T00:08:38.342Z,8.18
2022-09-06T00:09:10.643Z,7.60
2022-09-06T00:09:42.932Z,8.10
2022-09-06T00:10:15.531Z,7.63
2022-09-06T00:10:47.962Z,8.30
2022-09-06T00:11:20.451Z,8.07
2022-09-06T00:11:52.791Z,9.38
2022-09-06T00:12:25.504Z,8.27
2022-09-06T00:13:08.636Z,9.32
2022-09-06T00:13:40.933Z,9.00
2022-09-06T00:14:13.214Z,9.05
2022-09-06T00:14:45.659Z,9.63
2022-09-06T00:15:18.119Z,8.63
2022-09-06T00:15:50.472Z,9.40
2022-09-06T00:16:28.436Z,8.73
2022-09-06T00:17:03.030Z,9.32
2022-09-06T00:17:35.410Z,8.93
2022-09-06T00:18:08.557Z,9.75
2022-09-06T00:18:40.879Z,9.05
2022-09-06T00:19:13.248Z,9.25
2022-09-06T00:19:45.615Z,9.63
2022-09-06T00:20:18.157Z,9.30
2022-09-06T00:20:50.643Z,9.40
2022-09-06T00:21:24.290Z,10.45
2022-09-06T00:21:56.722Z,8.85
2022-09-06T00:22:29.158Z,9.63
2022-09-06T00:23:05.932Z,9.13
2022-09-06T00:23:38.418Z,9.30
2022-09-06T00:24:11.053Z,10.55
2022-09-06T00:24:43.532Z,9.52
2022-09-06T00:25:15.944Z,10.65
2022-09-06T00:25:48.412Z,10.13
2022-09-06T00:26:21.618Z,11.07
2022-09-06T00:26:53.970Z,10.45
2022-09-06T00:27:26.618Z,9.93
2022-09-06T00:28:03.147Z,9.70
2022-09-06T00:28:35.459Z,9.68
2022-09-06T00:29:07.920Z,8.95
2022-09-06T00:29:40.367Z,10.15
2022-09-06T00:30:12.859Z,9.45
2022-09-06T00:30:45.439Z,10.18
2022-09-06T00:31:19.850Z,9.45
2022-09-06T00:31:52.192Z,9.82
2022-09-06T00:32:24.804Z,9.18
2022-09-06T00:32:57.999Z,9.68
2022-09-06T00:33:30.349Z,9.73
2022-09-06T00:34:02.948Z,10.02
2022-09-06T00:34:35.521Z,8.70
2022-09-06T00:35:07.882Z,11.13
2022-09-06T00:35:40.379Z,8.30
2022-09-06T00:36:13.400Z,9.13
2022-09-06T00:36:45.688Z,8.32
2022-09-06T00:37:17.982Z,9.35
2022-09-06T00:37:50.723Z,9.50
2022-09-06T00:38:23.101Z,9.65
2022-09-06T00:38:55.632Z,9.10
2022-09-06T00:39:27.965Z,9.75
2022-09-06T00:40:00.408Z,10.63
2022-09-06T00:40:34.372Z,10.40
2022-09-06T00:41:07.418Z,9.30
2022-09-06T00:41:39.667Z,9.23
2022-09-06T00:42:12.973Z,10.63
2022-09-06T00:42:45.245Z,10.32
2022-09-06T00:43:17.666Z,10.88
2022-09-06T00:43:49.990Z,9.75
2022-09-06T00:44:22.322Z,9.60
2022-09-06T00:44:54.758Z,9.73
2022-09-06T00:45:27.767Z,9.38
2022-09-06T00:46:00.562Z,9.93
2022-09-06T00:46:33.472Z,10.68
2022-09-06T00:47:07.297Z,9.43
2022-09-06T00:47:40.845Z,9.70
2022-09-06T00:48:13.337Z,10.38
2022-09-06T00:48:47.315Z,9.23
2022-09-06T00:49:24.638Z,10.80
2022-09-06T00:49:57.755Z,9.60
2022-09-06T00:50:30.343Z,9.77
2022-09-06T00:51:04.345Z,9.60
2022-09-06T00:51:36.938Z,9.68
2022-09-06T00:52:10.981Z,9.52
2022-09-06T00:52:44.523Z,9.48
2022-09-06T00:53:17.150Z,10.13
2022-09-06T00:53:49.897Z,11.00
2022-09-06T00:54:22.280Z,9.38
2022-09-06T00:54:55.405Z,9.98
2022-09-06T00:55:27.829Z,10.05
2022-09-06T00:56:00.310Z,9.93
2022-09-06T00:56:34.855Z,10.15
2022-09-06T00:57:07.552Z,10.30
2022-09-06T00:57:40.427Z,10.15
2022-09-06T00:58:13.060Z,10.77
2022-09-06T00:58:45.911Z,10.65
2022-09-06T00:59:18.513Z,10.23
2022-09-06T00:59:50.848Z,9.60
2022-09-06T01:00:23.333Z,10.05
2022-09-06T01:00:55.663Z,10.25
2022-09-06T01:01:28.320Z,11.15
2022-09-06T01:02:01.195Z,10.05
2022-09-06T01:02:33.745Z,9.73
2022-09-06T01:03:06.869Z,10.10
2022-09-06T01:03:39.400Z,9.73
2022-09-06T01:04:12.161Z,10.60
2022-09-06T01:04:45.530Z,9.40
2022-09-06T01:05:18.279Z,10.05
2022-09-06T01:05:54.276Z,10.00
2022-09-06T01:06:31.221Z,9.52
2022-09-06T01:07:06.528Z,9.52
2022-09-06T01:07:47.960Z,9.88
2022-09-06T01:08:20.288Z,8.73
2022-09-06T01:08:52.804Z,9.52
2022-09-06T01:09:28.176Z,10.68
2022-09-06T01:10:06.319Z,9.65
2022-09-06T01:10:41.286Z,10.38
2022-09-06T01:11:19.420Z,9.48
2022-09-06T01:11:57.529Z,9.90
2022-09-06T01:12:47.354Z,9.20
2022-09-06T01:13:28.852Z,9.32
2022-09-06T01:14:01.285Z,9.63
2022-09-06T01:14:33.562Z,9.48
2022-09-06T01:15:21.896Z,9.45
2022-09-06T01:15:56.849Z,8.57
2022-09-06T01:16:29.703Z,9.20
2022-09-06T01:17:04.789Z,10.65
2022-09-06T01:17:49.450Z,10.23
2022-09-06T01:18:45.176Z,9.85
2022-09-06T01:19:36.324Z,9.48
2022-09-06T01:20:40.305Z,9.40
2022-09-06T01:21:24.577Z,9.30
2022-09-06T01:22:14.714Z,9.43
2022-09-06T01:22:56.175Z,9.15
2022-09-06T01:23:31.543Z,9.98
2022-09-06T01:24:25.517Z,9.52
2022-09-06T01:25:19.223Z,8.80
2022-09-06T01:25:58.520Z,9.85
2022-09-06T01:26:49.383Z,9.45
2022-09-06T01:27:40.510Z,9.30
2022-09-06T01:28:30.509Z,10.23
2022-09-06T01:29:59.047Z,8.95
2022-09-06T01:30:31.956Z,9.50
2022-09-06T01:31:07.243Z,9.23
2022-09-06T01:31:45.506Z,9.57
2022-09-06T01:32:18.225Z,9.57
2022-09-06T01:32:56.296Z,9.77
2022-09-06T01:33:37.964Z,9.85
2022-09-06T01:34:27.046Z,9.65
2022-09-06T01:35:04.893Z,10.38
2022-09-06T01:35:55.607Z,9.75
2022-09-06T01:36:32.476Z,9.85
2022-09-06T01:37:16.022Z,9.10
2022-09-06T01:37:48.352Z,11.07
2022-09-06T01:38:21.137Z,9.85
2022-09-06T01:38:53.496Z,10.13
2022-09-06T01:39:30.231Z,10.60
2022-09-06T01:40:02.894Z,9.50
2022-09-06T01:40:38.581Z,10.88
2022-09-06T01:41:11.405Z,9.07
2022-09-06T01:41:43.784Z,10.73
2022-09-06T01:42:18.355Z,10.20
2022-09-06T01:42:51.806Z,11.05
2022-09-06T01:43:50.290Z,10.38
2022-09-06T01:44:23.379Z,9.88
2022-09-06T01:44:58.255Z,10.95
2022-09-06T01:45:49.487Z,10.90
2022-09-06T01:46:39.733Z,11.10
2022-09-06T01:47:18.182Z,11.90
2022-09-06T01:47:55.966Z,12.23
2022-09-06T01:48:28.551Z,9.85
2022-09-06T01:49:00.941Z,11.15
2022-09-06T01:49:51.254Z,11.00
2022-09-06T01:50:31.244Z,9.75
2022-09-06T01:51:38.450Z,10.43
2022-09-06T01:52:20.475Z,9.80
2022-09-06T01:53:11.098Z,10.13
2022-09-06T01:53:54.015Z,10.32
2022-09-06T01:54:28.723Z,9.55
2022-09-06T01:55:15.090Z,10.60
2022-09-06T01:55:52.381Z,11.02
2022-09-06T01:56:42.955Z,10.60
2022-09-06T01:57:17.925Z,9.63
2022-09-06T01:57:59.172Z,9.48
2022-09-06T01:58:46.095Z,10.50
2022-09-06T01:59:21.430Z,10.25
2022-09-06T01:59:56.522Z,9.75
2022-09-06T02:00:29.338Z,10.68
2022-09-06T02:01:06.010Z,10.95
2022-09-06T02:01:38.380Z,10.02
2022-09-06T02:02:13.669Z,10.82
2022-09-06T02:02:48.801Z,9.30
2022-09-06T02:03:28.080Z,9.05
2022-09-06T02:04:03.828Z,11.38
2022-09-06T02:04:47.468Z,11.00
2022-09-06T02:05:25.568Z,11.32
2022-09-06T02:06:04.256Z,10.07
2022-09-06T02:06:40.304Z,10.80
2022-09-06T02:07:17.872Z,10.25
2022-09-06T02:07:53.043Z,9.88
2022-09-06T02:08:37.389Z,10.57
2022-09-06T02:09:11.855Z,10.18
2022-09-06T02:09:45.941Z,9.32
2022-09-06T02:10:24.341Z,9.40
2022-09-06T02:11:01.192Z,9.40
2022-09-06T02:11:36.004Z,10.50
2022-09-06T02:12:10.202Z,9.15
2022-09-06T02:12:43.721Z,9.90
2022-09-06T02:13:17.091Z,9.35
2022-09-06T02:13:55.249Z,10.07
2022-09-06T02:14:39.774Z,9.48
2022-09-06T02:15:15.472Z,9.77
2022-09-06T02:15:51.490Z,9.70
2022-09-06T02:16:25.365Z,8.55
2022-09-06T02:16:59.295Z,9.73
2022-09-06T02:17:32.919Z,9.23
2022-09-06T02:18:13.467Z,9.68
2022-09-06T02:18:58.636Z,8.88
2022-09-06T02:19:34.056Z,9.45
2022-09-06T02:20:11.464Z,10.43
2022-09-06T02:20:50.167Z,9.10
2022-09-06T02:21:25.984Z,9.18
2022-09-06T02:21:58.548Z,10.07
2022-09-06T02:22:33.253Z,8.82
2022-09-06T02:23:07.299Z,9.13
2022-09-06T02:23:40.644Z,9.48
2022-09-06T02:24:19.432Z,8.93
2022-09-06T02:24:52.991Z,9.00
2022-09-06T02:25:27.636Z,9.80
2022-09-06T02:26:04.613Z,8.98
2022-09-06T02:26:39.846Z,8.60
2022-09-06T02:27:12.661Z,9.98
2022-09-06T02:27:45.093Z,10.45
2022-09-06T02:28:17.659Z,9.75
2022-09-06T02:28:50.177Z,8.82
2022-09-06T02:29:22.947Z,9.30
2022-09-06T02:29:55.395Z,8.82
2022-09-06T02:30:27.809Z,8.85
2022-09-06T02:31:02.685Z,8.82
2022-09-06T02:31:40.150Z,9.35
2022-09-06T02:32:23.211Z,9.38
2022-09-06T02:33:06.916Z,8.25
2022-09-06T02:33:40.774Z,8.07
2022-09-06T02:34:15.305Z,9.75
2022-09-06T02:34:48.916Z,8.48
2022-09-06T02:35:21.325Z,10.10
2022-09-06T02:35:54.351Z,11.02
2022-09-06T02:36:27.091Z,9.27
2022-09-06T02:37:00.476Z,9.82
2022-09-06T02:37:33.162Z,9.95
2022-09-06T02:38:05.637Z,9.80
2022-09-06T02:38:39.704Z,10.25
2022-09-06T02:39:12.555Z,7.90
2022-09-06T02:39:44.995Z,10.23
2022-09-06T02:40:17.309Z,8.77
2022-09-06T02:40:52.113Z,9.38
2022-09-06T02:41:25.023Z,9.95
2022-09-06T02:41:57.996Z,9.90
2022-09-06T02:42:30.432Z,9.23
2022-09-06T02:43:02.734Z,10.70
2022-09-06T02:43:35.491Z,8.70
2022-09-06T02:44:07.874Z,9.77
2022-09-06T02:44:40.624Z,9.48
2022-09-06T02:45:13.095Z,10.77
2022-09-06T02:45:45.484Z,9.32
2022-09-06T02:46:18.227Z,11.00
2022-09-06T02:46:54.983Z,9.90
2022-09-06T02:47:29.242Z,8.55
2022-09-06T02:48:01.586Z,9.63
2022-09-06T02:48:33.935Z,8.45
2022-09-06T02:49:06.873Z,9.32
2022-09-06T02:49:39.370Z,8.63
2022-09-06T02:50:13.586Z,8.65
2022-09-06T02:50:46.119Z,9.90
2022-09-06T02:51:18.440Z,9.10
2022-09-06T02:51:51.187Z,8.43
2022-09-06T02:52:23.659Z,9.70
2022-09-06T02:53:12.797Z,8.82
2022-09-06T02:53:45.167Z,9.45
2022-09-06T02:54:17.620Z,9.52
2022-09-06T02:54:50.345Z,10.10
2022-09-06T02:55:23.096Z,9.85
2022-09-06T02:55:55.476Z,9.63
2022-09-06T02:56:28.076Z,9.23
2022-09-06T02:57:00.476Z,9.93
2022-09-06T02:57:32.881Z,9.85
2022-09-06T02:58:06.788Z,9.18
2022-09-06T02:58:40.242Z,8.80
2022-09-06T02:59:12.788Z,9.43
2022-09-06T02:59:46.506Z,10.18
2022-09-06T03:00:19.021Z,8.55
2022-09-06T03:00:52.566Z,8.73
2022-09-06T03:01:24.984Z,9.75
2022-09-06T03:01:57.517Z,8.82
2022-09-06T03:02:30.017Z,9.30
2022-09-06T03:03:02.823Z,8.95
2022-09-06T03:03:35.561Z,8.90
2022-09-06T03:04:08.744Z,8.23
2022-09-06T03:04:41.067Z,9.27
2022-09-06T03:05:13.884Z,9.23
2022-09-06T03:05:50.076Z,8.75
2022-09-06T03:06:22.610Z,8.75
2022-09-06T03:06:56.493Z,9.05
2022-09-06T03:07:28.858Z,8.75
2022-09-06T03:08:01.224Z,9.07
2022-09-06T03:08:34.469Z,9.80
2022-09-06T03:09:06.793Z,8.50
2022-09-06T03:09:39.090Z,8.90
2022-09-06T03:10:11.558Z,9.13
2022-09-06T03:10:50.651Z,8.73
2022-09-06T03:11:23.211Z,8.07
2022-09-06T03:11:55.513Z,8.07
2022-09-06T03:12:28.065Z,9.43
2022-09-06T03:13:00.546Z,9.15
2022-09-06T03:13:32.878Z,8.85
2022-09-06T03:14:05.253Z,8.32
2022-09-06T03:14:37.571Z,8.77
2022-09-06T03:15:10.593Z,8.95
2022-09-06T03:15:43.003Z,8.73
2022-09-06T03:16:15.354Z,9.15
2022-09-06T03:16:47.682Z,8.85
2022-09-06T03:17:20.097Z,9.48
2022-09-06T03:17:52.410Z,8.70
2022-09-06T03:18:25.191Z,8.60
2022-09-06T03:18:58.002Z,9.55
2022-09-06T03:19:30.278Z,8.93
2022-09-06T03:20:02.613Z,9.38
2022-09-06T03:20:37.104Z,8.23
2022-09-06T03:21:10.020Z,8.70
2022-09-06T03:21:42.230Z,9.73
2022-09-06T03:22:14.460Z,9.20
2022-09-06T03:22:46.801Z,9.27
2022-09-06T03:23:19.525Z,9.98
2022-09-06T03:23:51.850Z,9.68
2022-09-06T03:24:24.182Z,9.50
2022-09-06T03:24:56.674Z,9.52
2022-09-06T03:25:29.124Z,8.35
2022-09-06T03:26:01.476Z,8.90
2022-09-06T03:26:33.846Z,9.77
2022-09-06T03:27:06.226Z,9.85
2022-09-06T03:27:38.644Z,9.48
2022-09-06T03:28:11.315Z,9.50
2022-09-06T03:28:43.744Z,9.38
2022-09-06T03:29:16.519Z,9.90
2022-09-06T03:29:48.867Z,8.80
2022-09-06T03:30:21.577Z,8.80
2022-09-06T03:30:54.194Z,10.05
2022-09-06T03:31:26.576Z,8.98
2022-09-06T03:31:59.068Z,10.00
2022-09-06T03:32:31.399Z,9.52
2022-09-06T03:33:03.804Z,9.57
2022-09-06T03:33:36.192Z,10.25
2022-09-06T03:34:11.072Z,9.50
2022-09-06T03:34:43.775Z,8.30
2022-09-06T03:35:16.178Z,9.07
2022-09-06T03:35:53.039Z,9.88
2022-09-06T03:36:25.401Z,9.40
2022-09-06T03:36:57.869Z,9.38
2022-09-06T03:37:30.368Z,9.70
2022-09-06T03:38:02.694Z,8.35
2022-09-06T03:38:35.000Z,8.68
2022-09-06T03:39:07.393Z,8.75
2022-09-06T03:39:39.781Z,9.20
2022-09-06T03:40:12.282Z,8.30
2022-09-06T03:40:48.151Z,8.43
2022-09-06T03:41:20.490Z,8.80
2022-09-06T03:41:52.929Z,8.80
2022-09-06T03:42:26.983Z,8.48
2022-09-06T03:42:59.341Z,8.90
2022-09-06T03:43:32.720Z,9.68
2022-09-06T03:44:05.202Z,8.38
2022-09-06T03:44:37.634Z,8.20
2022-09-06T03:45:10.261Z,9.27
2022-09-06T03:45:46.177Z,9.00
2022-09-06T03:46:18.679Z,8.60
2022-09-06T03:46:52.367Z,8.35
2022-09-06T03:47:24.800Z,8.63
2022-09-06T03:47:57.090Z,9.48
2022-09-06T03:48:30.169Z,9.50
2022-09-06T03:49:02.578Z,9.48
2022-09-06T03:49:34.954Z,9.20
2022-09-06T03:50:07.776Z,8.55
2022-09-06T03:50:44.457Z,8.88
2022-09-06T03:51:17.048Z,8.43
2022-09-06T03:51:49.802Z,8.40
2022-09-06T03:52:22.116Z,8.60
2022-09-06T03:52:54.441Z,7.57
2022-09-06T03:53:27.652Z,7.78
2022-09-06T03:54:00.052Z,8.60
2022-09-06T03:54:32.450Z,8.55
2022-09-06T03:55:05.523Z,8.70
2022-09-06T03:55:38.319Z,9.10
2022-09-06T03:56:10.700Z,8.77
2022-09-06T03:56:43.204Z,9.98
2022-09-06T03:57:15.568Z,9.10
2022-09-06T03:57:47.873Z,9.32
2022-09-06T03:58:21.084Z,8.85
2022-09-06T03:58:54.149Z,10.10
2022-09-06T03:59:26.673Z,9.00
2022-09-06T03:59:58.989Z,9.32
2022-09-06T04:00:33.705Z,8.88
2022-09-06T04:01:07.551Z,9.57
2022-09-06T04:01:40.383Z,8.02
2022-09-06T04:02:12.962Z,8.85
2022-09-06T04:02:45.554Z,9.02
2022-09-06T04:03:19.644Z,9.32
2022-09-06T04:03:51.991Z,9.02
2022-09-06T04:04:24.838Z,8.10
2022-09-06T04:04:57.147Z,8.55
2022-09-06T04:05:29.484Z,9.52
2022-09-06T04:06:01.904Z,8.05
2022-09-06T04:06:34.467Z,8.02
2022-09-06T04:07:06.784Z,8.77
2022-09-06T04:07:39.408Z,9.60
2022-09-06T04:08:11.770Z,9.57
2022-09-06T04:08:44.452Z,8.63
2022-09-06T04:09:17.039Z,8.63
2022-09-06T04:09:50.282Z,8.35
2022-09-06T04:10:22.785Z,8.38
2022-09-06T04:10:56.016Z,9.20
2022-09-06T04:11:28.763Z,8.52
2022-09-06T04:12:01.114Z,8.90
2022-09-06T04:12:35.175Z,8.57
2022-09-06T04:13:07.879Z,7.75
2022-09-06T04:13:40.235Z,7.75
2022-09-06T04:14:12.575Z,9.15
2022-09-06T04:14:44.946Z,8.80
2022-09-06T04:15:17.436Z,8.45
2022-09-06T04:15:49.792Z,9.25
2022-09-06T04:16:22.175Z,8.93
2022-09-06T04:16:54.731Z,8.20
2022-09-06T04:17:27.080Z,9.15
2022-09-06T04:17:59.311Z,8.63
2022-09-06T04:18:31.733Z,8.38
2022-09-06T04:19:04.749Z,8.73
2022-09-06T04:19:37.281Z,8.43
2022-09-06T04:20:10.464Z,8.20
2022-09-06T04:20:43.084Z,8.90
2022-09-06T04:21:15.332Z,7.60
2022-09-06T04:21:47.630Z,8.15
2022-09-06T04:22:19.848Z,9.35
2022-09-06T04:22:52.236Z,8.73
2022-09-06T04:23:25.621Z,7.97
2022-09-06T04:23:57.943Z,9.20
2022-09-06T04:24:30.652Z,8.70
2022-09-06T04:25:03.898Z,8.57
2022-09-06T04:25:36.748Z,7.82
2022-09-06T04:26:09.292Z,9.07
2022-09-06T04:26:41.676Z,8.70
2022-09-06T04:27:14.311Z,9.27
2022-09-06T04:27:46.600Z,8.57
2022-09-06T04:28:19.236Z,8.65
2022-09-06T04:28:51.805Z,7.82
2022-09-06T04:29:24.899Z,7.40
2022-09-06T04:29:57.235Z,8.60
2022-09-06T04:30:29.820Z,7.57
2022-09-06T04:31:05.267Z,8.55
2022-09-06T04:31:38.495Z,7.53
2022-09-06T04:32:10.873Z,7.93
2022-09-06T04:32:43.292Z,8.43
2022-09-06T04:33:15.664Z,8.05
2022-09-06T04:33:48.041Z,8.70
2022-09-06T04:34:20.424Z,8.02
2022-09-06T04:34:52.682Z,9.18
2022-09-06T04:35:25.066Z,8.02
2022-09-06T04:35:58.958Z,8.35
2022-09-06T04:36:31.376Z,8.23
2022-09-06T04:37:03.794Z,7.95
2022-09-06T04:37:36.086Z,8.48
2022-09-06T04:38:08.516Z,8.18
2022-09-06T04:38:42.350Z,8.38
2022-09-06T04:39:14.826Z,9.05
2022-09-06T04:39:47.643Z,8.73
2022-09-06T04:40:20.076Z,8.13
2022-09-06T04:40:52.567Z,8.90
2022-09-06T04:41:24.922Z,8.07
2022-09-06T04:41:57.274Z,8.52
2022-09-06T04:42:30.067Z,8.40
2022-09-06T04:43:02.363Z,7.85
2022-09-06T04:43:34.930Z,9.05
2022-09-06T04:44:07.435Z,7.32
2022-09-06T04:44:40.176Z,8.55
2022-09-06T04:45:12.646Z,7.63
2022-09-06T04:45:45.191Z,7.72
2022-09-06T04:46:30.794Z,8.30
2022-09-06T04:47:09.355Z,8.18
2022-09-06T04:47:42.215Z,7.15
2022-09-06T04:48:14.607Z,7.68
2022-09-06T04:48:47.896Z,7.82
2022-09-06T04:49:20.252Z,9.05
2022-09-06T04:49:52.640Z,7.68
2022-09-06T04:50:25.007Z,8.40
2022-09-06T04:50:59.185Z,8.95
2022-09-06T04:51:31.861Z,8.65
2022-09-06T04:52:04.260Z,8.57
2022-09-06T04:52:36.567Z,8.18
2022-09-06T04:53:11.150Z,8.50
2022-09-06T04:53:43.692Z,8.02
2022-09-06T04:54:16.051Z,8.27
2022-09-06T04:54:48.351Z,7.82
2022-09-06T04:55:20.678Z,6.93
2022-09-06T04:55:53.243Z,7.97
2022-09-06T04:56:26.572Z,8.18
2022-09-06T04:56:58.988Z,8.32
2022-09-06T04:57:31.479Z,8.07
2022-09-06T04:58:04.398Z,8.23
2022-09-06T04:58:36.903Z,8.27
2022-09-06T04:59:09.242Z,8.25
2022-09-06T04:59:41.639Z,9.10
2022-09-06T05:00:14.461Z,8.38
2022-09-06T05:00:47.982Z,7.88
2022-09-06T05:01:20.780Z,8.57
2022-09-06T05:01:53.544Z,8.27
2022-09-06T05:02:26.047Z,8.02
2022-09-06T05:02:59.036Z,7.82
2022-09-06T05:03:31.340Z,7.93
2022-09-06T05:04:03.650Z,7.90
2022-09-06T05:04:35.954Z,7.57
2022-09-06T05:05:08.624Z,8.35
2022-09-06T05:05:40.980Z,8.70
2022-09-06T05:06:21.145Z,9.05
2022-09-06T05:07:08.626Z,8.65
2022-09-06T05:07:41.026Z,7.78
2022-09-06T05:08:13.414Z,7.80
2022-09-06T05:08:45.806Z,8.15
2022-09-06T05:09:18.430Z,8.38
2022-09-06T05:09:51.092Z,8.73
2022-09-06T05:10:23.832Z,8.10
2022-09-06T05:10:56.349Z,7.93
2022-09-06T05:11:29.070Z,8.65
2022-09-06T05:12:01.878Z,9.02
2022-09-06T05:12:34.366Z,7.20
2022-09-06T05:13:06.695Z,8.65
2022-09-06T05:13:39.385Z,7.43
2022-09-06T05:14:12.146Z,8.50
2022-09-06T05:14:44.576Z,7.75
2022-09-06T05:15:17.784Z,8.20
2022-09-06T05:15:50.151Z,7.78
2022-09-06T05:16:22.573Z,7.90
2022-09-06T05:16:55.391Z,8.10
2022-09-06T05:17:27.725Z,8.00
2022-09-06T05:18:04.280Z,8.45
2022-09-06T05:18:36.650Z,8.07
2022-09-06T05:19:09.121Z,7.78
2022-09-06T05:19:41.578Z,7.75
2022-09-06T05:20:14.038Z,8.05
2022-09-06T05:20:51.763Z,8.50
2022-09-06T05:21:24.122Z,8.48
2022-09-06T05:21:56.673Z,8.30
2022-09-06T05:22:28.953Z,7.93
2022-09-06T05:23:01.814Z,8.48
2022-09-06T05:23:34.216Z,7.82
2022-09-06T05:24:06.580Z,8.35
2022-09-06T05:24:39.135Z,7.80
2022-09-06T05:25:11.707Z,7.53
2022-09-06T05:25:44.274Z,7.90
2022-09-06T05:26:16.581Z,8.38
2022-09-06T05:26:49.282Z,8.05
2022-09-06T05:27:21.662Z,7.47
2022-09-06T05:27:54.051Z,7.32
2022-09-06T05:28:26.436Z,7.70
2022-09-06T05:28:58.984Z,7.85
2022-09-06T05:29:31.544Z,7.22
2022-09-06T05:30:04.653Z,7.75
2022-09-06T05:30:37.044Z,6.88
2022-09-06T05:31:14.369Z,7.03
2022-09-06T05:31:46.959Z,7.60
2022-09-06T05:32:19.376Z,8.15
2022-09-06T05:32:51.718Z,7.10
2022-09-06T05:33:24.253Z,7.72
2022-09-06T05:33:57.716Z,6.35
2022-09-06T05:34:30.310Z,7.57
2022-09-06T05:35:02.723Z,7.03
2022-09-06T05:35:35.183Z,7.10
2022-09-06T05:36:07.634Z,7.32
2022-09-06T05:36:41.748Z,7.78
2022-09-06T05:37:14.125Z,6.82
2022-09-06T05:37:46.559Z,7.65
2022-09-06T05:38:18.854Z,7.80
2022-09-06T05:38:51.552Z,7.40
2022-09-06T05:39:24.116Z,7.15
2022-09-06T05:39:56.785Z,7.10
2022-09-06T05:40:29.192Z,7.15
2022-09-06T05:41:01.538Z,7.20
2022-09-06T05:41:34.043Z,8.35
2022-09-06T05:42:07.164Z,7.68
2022-09-06T05:42:41.199Z,7.75
2022-09-06T05:43:13.787Z,7.57
2022-09-06T05:43:46.436Z,7.40
2022-09-06T05:44:18.768Z,7.15
2022-09-06T05:44:51.192Z,7.78
2022-09-06T05:45:23.846Z,7.15
2022-09-06T05:45:56.543Z,7.95
2022-09-06T05:46:28.858Z,7.28
2022-09-06T05:47:02.127Z,6.82
2022-09-06T05:47:35.740Z,7.25
2022-09-06T05:48:08.845Z,6.85
2022-09-06T05:48:41.220Z,7.03
2022-09-06T05:49:13.857Z,6.70
2022-09-06T05:49:46.496Z,6.90
2022-09-06T05:50:18.816Z,7.03
2022-09-06T05:51:07.690Z,6.88
2022-09-06T05:51:40.926Z,7.57
2022-09-06T05:52:13.303Z,6.47
2022-09-06T05:52:45.682Z,7.03
2022-09-06T05:53:18.096Z,7.07
2022-09-06T05:53:50.605Z,6.72
2022-09-06T05:54:23.107Z,7.15
2022-09-06T05:54:55.826Z,7.30
2022-09-06T05:55:28.140Z,7.32
2022-09-06T05:56:00.509Z,7.07
2022-09-06T05:56:32.901Z,6.53
2022-09-06T05:57:05.329Z,6.57
2022-09-06T05:57:38.061Z,7.28
2022-09-06T05:58:10.397Z,6.38
2022-09-06T05:58:42.864Z,7.47
2022-09-06T05:59:15.291Z,7.22
2022-09-06T05:59:47.752Z,7.45
2022-09-06T06:00:20.443Z,7.15
2022-09-06T06:00:52.774Z,7.18
2022-09-06T06:01:29.583Z,5.78
2022-09-06T06:02:05.450Z,6.95
2022-09-06T06:02:40.323Z,6.63
2022-09-06T06:03:12.700Z,6.95
2022-09-06T06:03:52.442Z,6.65
2022-09-06T06:04:24.838Z,8.07
2022-09-06T06:04:58.822Z,6.38
2022-09-06T06:05:31.185Z,7.15
2022-09-06T06:06:03.569Z,7.72
2022-09-06T06:06:35.940Z,7.97
2022-09-06T06:07:08.214Z,7.00
2022-09-06T06:07:40.606Z,6.80
2022-09-06T06:08:12.938Z,7.38
2022-09-06T06:08:45.309Z,6.60
2022-09-06T06:09:17.831Z,6.80
2022-09-06T06:09:50.143Z,6.30
2022-09-06T06:10:22.527Z,7.03
2022-09-06T06:10:58.291Z,7.18
2022-09-06T06:11:31.442Z,6.47
2022-09-06T06:12:04.007Z,6.68
2022-09-06T06:12:36.334Z,7.30
2022-09-06T06:13:09.015Z,7.28
2022-09-06T06:13:42.016Z,7.47
2022-09-06T06:14:14.340Z,7.65
2022-09-06T06:14:47.019Z,6.43
2022-09-06T06:15:19.451Z,6.60
2022-09-06T06:15:51.747Z,6.50
2022-09-06T06:16:25.145Z,7.03
2022-09-06T06:16:57.741Z,6.80
2022-09-06T06:17:30.070Z,7.32
2022-09-06T06:18:02.414Z,6.53
2022-09-06T06:18:35.122Z,7.30
2022-09-06T06:19:07.504Z,7.00
2022-09-06T06:19:40.392Z,8.20
2022-09-06T06:20:12.689Z,7.07
2022-09-06T06:20:45.028Z,7.10
2022-09-06T06:21:19.587Z,7.25
2022-09-06T06:21:52.059Z,7.13
2022-09-06T06:22:24.462Z,7.57
2022-09-06T06:22:56.967Z,6.53
2022-09-06T06:23:29.352Z,6.90
2022-09-06T06:24:03.280Z,7.57
2022-09-06T06:24:35.766Z,7.10
2022-09-06T06:25:08.543Z,7.40
2022-09-06T06:25:40.856Z,6.88
2022-09-06T06:26:13.807Z,6.53
2022-09-06T06:26:46.181Z,6.60
2022-09-06T06:27:18.519Z,7.00
2022-09-06T06:27:50.973Z,6.38
2022-09-06T06:28:23.502Z,7.10
2022-09-06T06:28:57.998Z,6.82
2022-09-06T06:29:30.305Z,6.82
2022-09-06T06:30:02.863Z,7.70
2022-09-06T06:30:35.150Z,7.28
2022-09-06T06:31:08.548Z,6.05
2022-09-06T06:31:41.786Z,7.03
2022-09-06T06:32:14.191Z,6.82
2022-09-06T06:32:46.611Z,6.55
2022-09-06T06:33:18.916Z,6.85
2022-09-06T06:33:51.378Z,7.65
2022-09-06T06:34:23.708Z,7.22
2022-09-06T06:34:56.120Z,6.47
2022-09-06T06:35:28.627Z,7.55
2022-09-06T06:36:08.294Z,7.03
2022-09-06T06:36:40.623Z,7.40
2022-09-06T06:37:12.913Z,7.35
2022-09-06T06:37:45.985Z,6.43
2022-09-06T06:38:18.320Z,7.28
2022-09-06T06:38:52.336Z,6.47
2022-09-06T06:39:24.816Z,7.47
2022-09-06T06:39:57.266Z,6.80
2022-09-06T06:40:29.780Z,6.85
2022-09-06T06:41:06.692Z,6.38
2022-09-06T06:41:39.630Z,7.70
2022-09-06T06:42:30.853Z,7.05
2022-09-06T06:43:03.342Z,6.50
2022-09-06T06:43:39.018Z,7.18
2022-09-06T06:44:11.332Z,6.22
2022-09-06T06:44:43.631Z,7.15
2022-09-06T06:45:15.972Z,6.90
2022-09-06T06:45:51.577Z,6.80
2022-09-06T06:46:25.896Z,6.57
2022-09-06T06:46:58.980Z,7.13
2022-09-06T06:47:31.523Z,7.70
2022-09-06T06:48:03.836Z,7.40
2022-09-06T06:48:36.692Z,7.53
2022-09-06T06:49:09.329Z,6.95
2022-09-06T06:49:41.624Z,6.75
2022-09-06T06:50:13.812Z,7.10
2022-09-06T06:50:46.170Z,8.25
2022-09-06T06:51:19.352Z,7.47
2022-09-06T06:51:51.661Z,7.80
2022-09-06T06:52:24.611Z,7.50
2022-09-06T06:52:56.869Z,7.18
2022-09-06T06:53:29.305Z,7.35
2022-09-06T06:54:01.664Z,7.35
2022-09-06T06:54:34.256Z,7.95
2022-09-06T06:55:07.157Z,7.88
2022-09-06T06:55:39.771Z,7.10
2022-09-06T06:56:15.336Z,6.75
2022-09-06T06:56:47.853Z,7.35
2022-09-06T06:57:20.406Z,8.15
2022-09-06T06:57:52.880Z,7.45
2022-09-06T06:58:25.428Z,7.55
2022-09-06T06:58:59.470Z,7.20
2022-09-06T06:59:31.935Z,6.90
2022-09-06T07:00:05.057Z,7.97
2022-09-06T07:00:37.805Z,7.65
2022-09-06T07:01:10.398Z,7.22
2022-09-06T07:01:42.944Z,6.63
2022-09-06T07:02:17.688Z,7.30
2022-09-06T07:02:50.224Z,8.05
2022-09-06T07:03:22.548Z,7.53
2022-09-06T07:03:55.020Z,7.68
2022-09-06T07:04:27.819Z,6.88
2022-09-06T07:05:00.461Z,7.68
2022-09-06T07:07:37.995Z,6.70
2022-09-06T07:08:11.958Z,7.53
2022-09-06T07:08:44.691Z,7.07
2022-09-06T07:09:18.535Z,7.50
2022-09-06T07:10:44.180Z,7.68
2022-09-06T07:11:19.444Z,7.07
2022-09-06T07:11:54.383Z,8.02
2022-09-06T07:12:26.878Z,7.47
2022-09-06T07:12:59.272Z,7.63
2022-09-06T07:13:31.857Z,7.53
2022-09-06T07:14:04.401Z,7.10
2022-09-06T07:14:37.112Z,7.15
2022-09-06T07:15:09.602Z,6.78
2022-09-06T07:15:41.960Z,7.38
2022-09-06T07:16:15.687Z,7.80
2022-09-06T07:16:48.093Z,8.00
2022-09-06T07:17:20.463Z,7.93
2022-09-06T07:17:55.178Z,7.50
2022-09-06T07:18:27.513Z,7.75
2022-09-06T07:19:00.647Z,7.43
2022-09-06T07:20:26.655Z,7.28
2022-09-06T07:21:51.481Z,7.72
2022-09-06T07:22:23.789Z,6.53
2022-09-06T07:24:09.587Z,6.93
2022-09-06T07:24:42.339Z,7.90
2022-09-06T07:25:20.998Z,7.82
2022-09-06T07:25:53.669Z,7.57
2022-09-06T07:26:27.553Z,7.60
2022-09-06T07:28:05.871Z,7.63
2022-09-06T07:28:39.361Z,7.68
2022-09-06T07:29:11.716Z,8.02
2022-09-06T07:29:44.562Z,7.60
2022-09-06T07:30:17.117Z,7.10
2022-09-06T07:30:52.777Z,7.25
2022-09-06T07:32:17.933Z,7.40
2022-09-06T07:32:50.407Z,8.00
2022-09-06T07:33:23.062Z,7.05
2022-09-06T07:33:55.827Z,7.07
2022-09-06T07:34:28.307Z,7.55
2022-09-06T07:35:00.648Z,7.75
2022-09-06T07:35:33.146Z,7.90
2022-09-06T07:36:06.509Z,7.13
2022-09-06T07:36:38.973Z,7.77
2022-09-06T07:37:11.365Z,7.75
2022-09-06T07:37:43.729Z,7.50
2022-09-06T07:38:16.213Z,7.93
2022-09-06T07:38:50.028Z,7.60
2022-09-06T07:39:22.466Z,7.57
2022-09-06T07:39:54.889Z,6.97